Flight Track Log - Related Links

Times and Time Zones

All times are in EDT time to prevent confusion due to time zone crossing. See the N53NW flight status page for this flight to view local times or setup timezone preferences in your user account.

Time Position Orientation Groundspeed Altitude Reporting Facility
EDT Latitude Longitude Course Direction KTS MPH feet Rate Location/Type
Fri 07:59:53 AM 39.8889 -83.1483 212° Southwest 177 204 1,300  Level Indianapolis Center
Fri 08:00:23 AM 39.8639 -83.1686 212° Southwest 201 231 2,300 2,351 Climbing Indianapolis Center
Fri 08:01:07 AM 39.8258 -83.1969 210° Southwest 217 250 4,200 2,774 Climbing Indianapolis Center
Fri 08:02:09 AM 39.8228 -83.2742 267° West 247 284 7,200 2,829 Climbing Indianapolis Center
Fri 08:03:10 AM 39.8875 -83.3147 334° Northwest 264 304 10,000 2,508 Climbing Indianapolis Center
Fri 08:04:11 AM 39.9603 -83.3431 343° North 276 318 12,300 2,341 Climbing Indianapolis Center
Fri 08:05:13 AM 40.0336 -83.3719 343° North 277 319 14,800 2,293 Climbing Indianapolis Center
Fri 08:06:14 AM 40.1075 -83.4000 344° North 278 320 17,000 1,073 Climbing Indianapolis Center
Fri 08:07:16 AM 40.1925 -83.4333 343° North 317 365 17,000  Level Indianapolis Center
Fri 08:08:17 AM 40.2983 -83.4753 343° North 333 383 17,000  Level Indianapolis Center
Fri 08:09:19 AM 40.3867 -83.5086 344° North 331 381 17,000  Level Indianapolis Center
Fri 08:10:20 AM 40.4739 -83.5436 343° North 330 380 17,000  Level Indianapolis Center
Fri 08:11:22 AM 40.5597 -83.5764 344° North 324 373 17,000  Level Indianapolis Center
Fri 08:12:23 AM 40.6464 -83.6094 344° North 323 372 17,000  Level Indianapolis Center
Fri 08:13:25 AM 40.7319 -83.6447 343° North 323 372 17,000  Level Indianapolis Center
Fri 08:14:26 AM 40.8186 -83.6781 344° North 325 374 17,000  Level Indianapolis Center
Fri 08:15:28 AM 40.9053 -83.7122 343° North 326 375 17,000  Level Indianapolis Center
Fri 08:16:29 AM 41.0092 -83.7542 343° North 325 374 17,000  Level Indianapolis Center
Fri 08:17:31 AM 41.0889 -83.7847 344° North 323 372 17,000  Level Indianapolis Center
Fri 08:18:06 AM 41.1450 -83.8122 340° North 317 365 17,000  Level Cleveland Center
Fri 08:19:06 AM 41.2317 -83.8469 343° North 317 365 17,000  Level Cleveland Center
Fri 08:20:06 AM 41.3161 -83.8814 343° North 317 365 17,000 -150 Level Cleveland Center
Fri 08:21:06 AM 41.4006 -83.9164 343° North 317 365 16,700 -900 Descending Cleveland Center
Fri 08:22:06 AM 41.4853 -83.9483 344° North 317 365 15,200 -1,500 Descending Cleveland Center
Fri 08:23:06 AM 41.5675 -83.9831 342° North 317 365 13,700 -1,500 Descending Cleveland Center
Fri 08:24:06 AM 41.6481 -84.0125 345° North 311 358 12,200 -1,458 Descending Cleveland Center
Fri 08:24:53 AM 41.7119 -84.0408 342° North 300 345 11,100 -1,167 Descending Cleveland Center
Fri 08:25:54 AM 41.7922 -84.0731 343° North 295 339 10,100 -541 Descending Cleveland Center
Fri 08:26:55 AM 41.8683 -84.1050 343° North 284 327 10,000 -49 Descending Cleveland Center
Fri 08:27:56 AM 41.9444 -84.1372 343° North 287 330 10,000 52 Level Cleveland Center
Fri 08:28:51 AM 42.0131 -84.1467 354° North 291 335 10,100 -436 Climbing Cleveland Center
Fri 08:29:46 AM 42.0831 -84.1058 23° Northeast 288 331 9,200 -1,397 Descending Cleveland Center
Fri 08:30:47 AM 42.1572 -84.0678 21° North 279 321 7,400 -1,770 Descending Cleveland Center
Fri 08:31:48 AM 42.2114 -84.0008 42° Northeast 271 312 5,600 -1,131 Descending Cleveland Center
Fri 08:32:49 AM 42.2656 -83.9333 43° Northeast 266 306 5,100 -295 Descending Cleveland Center
Fri 08:33:50 AM 42.3239 -83.8578 44° Northeast 278 320 5,000 -50 Descending Cleveland Center
Fri 08:34:50 AM 42.3800 -83.7878 43° Northeast 268 308 5,000  Level Cleveland Center
Fri 08:35:52 AM 42.4342 -83.7172 44° Northeast 261 300 5,000  Level Cleveland Center
Fri 08:36:53 AM 42.4881 -83.6494 43° Northeast 268 308 5,000 -836 Level Cleveland Center
Fri 08:37:54 AM 42.5422 -83.5733 46° Northeast 264 304 3,300 -984 Descending Cleveland Center
Fri 08:38:55 AM 42.5550 -83.4836 79° East 239 275 3,000 -148 Descending Cleveland Center
Fri 08:39:56 AM 42.5633 -83.3939 83° East 240 276 3,000  Level Cleveland Center
Fri 08:40:57 AM 42.5742 -83.2983 81° East 244 281 3,000  Level Cleveland Center
Fri 08:41:59 AM 42.5825 -83.2058 83° East 247 284 3,000  Level Cleveland Center
Fri 08:43:06 AM 42.6333 -83.1739 25° Northeast 193 222 3,000 -234 Level Cleveland Center
Fri 08:44:07 AM 42.6611 -83.2344 302° West 170 196 2,500 -344 Descending Cleveland Center
Fri 08:45:08 AM 42.6681 -83.2856 280° West 140 161 2,300 -197 Descending Cleveland Center
Fri 08:46:09 AM 42.6669 -83.3336 268° West 124 143 2,100 -372 Descending Cleveland Center
Fri 08:47:17 AM 42.6658 -83.3814 268° West 103 119 1,500 -6 Descending Cleveland Center
Fri 09:51:25 AM 42.6622 -83.4464 266° West 166 191 1,700 20 Climbing Cleveland Center
Fri 09:51:55 AM 42.6611 -83.4886 268° West 194 223 2,800 2,041 Climbing Cleveland Center
Fri 09:53:02 AM 42.7078 -83.5417 320° Northwest 287 330 5,000 1,500 Climbing Cleveland Center
Fri 09:54:03 AM 42.7392 -83.4497 65° Northeast 284 327 6,000 1,552 Climbing Cleveland Center
Fri 09:54:58 AM 42.7542 -83.3514 78° East 290 334 8,000 2,276 Climbing Cleveland Center
Fri 09:55:30 AM 42.7600 -83.2811 84° East 296 341 9,300 2,217 Climbing Cleveland Center
Fri 09:56:30 AM 42.7389 -83.1981 109° East 312 359 11,400 2,000 Climbing Cleveland Center
Fri 09:57:30 AM 42.6600 -83.1919 177° South 231 266 13,300 1,900 Climbing Cleveland Center
Fri 09:58:30 AM 42.5742 -83.2053 187° South 265 305 15,200 1,800 Climbing Cleveland Center
Fri 09:59:30 AM 42.4883 -83.2158 185° South 287 330 16,900 1,750 Climbing Cleveland Center
Fri 10:00:30 AM 42.3881 -83.2342 188° South 328 377 18,700 1,550 Climbing Cleveland Center
Fri 10:01:30 AM 42.3042 -83.2475 187° South 337 388 20,000 1,450 Climbing Cleveland Center
Fri 10:02:30 AM 42.2100 -83.2633 187° South 337 388 21,600 1,600 Climbing Cleveland Center
Fri 10:03:30 AM 42.1181 -83.2789 187° South 337 388 23,200 1,500 Climbing Cleveland Center
Fri 10:04:30 AM 42.0239 -83.2917 186° South 342 394 24,600 1,400 Climbing Cleveland Center
Fri 10:05:30 AM 41.9256 -83.3044 186° South 348 400 26,000 1,500 Climbing Cleveland Center
Fri 10:06:30 AM 41.8169 -83.3192 186° South 354 407 27,600 1,500 Climbing Cleveland Center
Fri 10:07:30 AM 41.7225 -83.3347 187° South 354 407 29,000 1,400 Climbing Cleveland Center
Fri 10:08:30 AM 41.6225 -83.3414 183° South 354 407 30,400 1,400 Climbing Cleveland Center

Login

Don't have an account? Register now (free) for customized features, flight alerts, and more!